Terminal Aerodrome Forecast
Issued by NWS Blacksburg, VA

Current Version | Previous Version | Graphics & Text | Print | Product List | Glossary On
Versions: 1 2 3 4 5 6 7 8 9 10 11 12 13 14 15
000
FTUS41 KRNK 212053 AAA
TAFBLF
TAF AMD
KBLF 212053Z 2121/2218 24011KT P6SM BKN050
     FM220000 23004KT P6SM BKN050
     FM220400 17005KT P6SM BKN025
     FM221200 18007KT P6SM BKN008
     FM221400 19008KT P6SM BKN050=

USA.gov is the U.S. government's official web portal to all federal, state and local government web resources and services.